TimeEET,TemperatureF,Dew PointF,Humidity,Sea Level PressureIn,VisibilityMPH,Wind Direction,Wind SpeedMPH,Gust SpeedMPH,PrecipitationIn,Events,Conditions,WindDirDegrees,DateUTC
12:50 AM,-2.2,-4.0,92,30.36,3.7,Calm,Calm,-,N/A,,Unknown,0,2013-01-11 22:50:00
1:50 AM,-2.2,-5.8,85,30.36,2.5,Variable,1.2,-,N/A,,Mist,0,2013-01-11 23:50:00
2:00 AM,-3,-3,99,,2,SE,1.2,,,,Mist,140,2013-01-12 00:00:00
2:50 AM,-4.0,-7.6,85,30.36,-9999.0,Calm,Calm,-,N/A,,Mist,0,2013-01-12 00:50:00
3:50 AM,-5.8,-9.4,84,30.36,-9999.0,SE,1.2,-,N/A,,Mist,140,2013-01-12 01:50:00
4:50 AM,-7.6,-9.4,92,30.36,1.1,Calm,Calm,-,N/A,Fog,Patches of Fog,0,2013-01-12 02:50:00
5:50 AM,-7.6,-9.4,92,30.36,1.1,Calm,Calm,-,N/A,Fog,Patches of Fog,0,2013-01-12 03:50:00
6:50 AM,-4.0,-7.6,85,30.39,0.5,Calm,Calm,-,N/A,Fog,Light Freezing Fog,0,2013-01-12 04:50:00
7:50 AM,-5.8,-9.4,84,30.39,0.5,Calm,Calm,-,N/A,Fog,Light Freezing Fog,0,2013-01-12 05:50:00
8:00 AM,-6,-6,100,,0,Calm,Calm,,,Fog,Heavy Fog,,2013-01-12 06:00:00
8:50 AM,-4.0,-5.8,92,30.39,0.5,Calm,Calm,-,N/A,Fog,Light Freezing Fog,0,2013-01-12 06:50:00
9:50 AM,1.4,-2.2,85,30.42,-9999.0,Calm,Calm,-,N/A,,Scattered Clouds,0,2013-01-12 07:50:00
10:50 AM,5.0,3.2,92,30.39,3.7,Variable,1.2,-,N/A,,Mostly Cloudy,0,2013-01-12 08:50:00
11:50 AM,14.0,12.2,93,30.36,4.3,Calm,Calm,-,N/A,,Mostly Cloudy,0,2013-01-12 09:50:00
12:50 PM,12.2,10.4,92,30.36,6.2,SSE,2.3,-,N/A,,Mostly Cloudy,150,2013-01-12 10:50:00
1:50 PM,14.0,10.4,86,30.36,6.2,ESE,2.3,-,N/A,,Scattered Clouds,120,2013-01-12 11:50:00
2:00 PM,13,12,96,,6,ESE,2.3,,,,Partly Cloudy,120,2013-01-12 12:00:00
2:50 PM,19.4,14.0,80,30.36,6.2,Calm,Calm,-,N/A,,Scattered Clouds,0,2013-01-12 12:50:00
3:50 PM,14.0,8.6,79,30.33,6.2,Calm,Calm,-,N/A,,Scattered Clouds,0,2013-01-12 13:50:00
4:50 PM,8.6,5.0,85,30.36,6.2,West,1.2,-,N/A,,Scattered Clouds,260,2013-01-12 14:50:00
5:50 PM,6.8,5.0,92,30.36,6.2,Variable,1.2,-,N/A,,Scattered Clouds,0,2013-01-12 15:50:00
6:50 PM,6.8,5.0,92,30.33,6.2,East,1.2,-,N/A,,Scattered Clouds,80,2013-01-12 16:50:00
7:50 PM,5.0,3.2,92,30.33,-9999.0,West,2.3,-,N/A,,Clear,270,2013-01-12 17:50:00
8:00 PM,6,5,91,,6,West,1.2,,,,,270,2013-01-12 18:00:00
8:50 PM,5.0,3.2,92,30.33,-9999.0,Calm,Calm,-,N/A,,Clear,0,2013-01-12 18:50:00
9:50 PM,5.0,3.2,92,30.33,-9999.0,Variable,1.2,-,N/A,,Clear,0,2013-01-12 19:50:00
10:50 PM,3.2,1.4,92,30.33,-9999.0,Variable,1.2,-,N/A,,Clear,0,2013-01-12 20:50:00
11:50 PM,5.0,3.2,92,30.30,-9999.0,Calm,Calm,-,N/A,,Clear,0,2013-01-12 21:50:00